sensor_id;sensor_type;location;lat;lon;timestamp;temperature;humidity
51878;SHT31;37911;51.526;11.536;2022-11-30T00:00:35;5.43;94.22
51878;SHT31;37911;51.526;11.536;2022-11-30T00:03:38;5.44;94.22
51878;SHT31;37911;51.526;11.536;2022-11-30T00:06:42;5.42;94.25
51878;SHT31;37911;51.526;11.536;2022-11-30T00:09:48;5.42;94.27
51878;SHT31;37911;51.526;11.536;2022-11-30T00:12:52;5.44;94.32
51878;SHT31;37911;51.526;11.536;2022-11-30T00:15:59;5.42;94.27
51878;SHT31;37911;51.526;11.536;2022-11-30T00:19:02;5.44;94.32
51878;SHT31;37911;51.526;11.536;2022-11-30T00:22:06;5.39;94.38
51878;SHT31;37911;51.526;11.536;2022-11-30T00:25:12;5.40;94.37
51878;SHT31;37911;51.526;11.536;2022-11-30T00:28:15;5.39;94.37
51878;SHT31;37911;51.526;11.536;2022-11-30T00:31:19;5.39;94.38
51878;SHT31;37911;51.526;11.536;2022-11-30T00:34:24;5.43;94.37
51878;SHT31;37911;51.526;11.536;2022-11-30T00:37:27;5.42;94.38
51878;SHT31;37911;51.526;11.536;2022-11-30T00:40:33;5.44;94.38
51878;SHT31;37911;51.526;11.536;2022-11-30T00:43:37;5.40;94.40
51878;SHT31;37911;51.526;11.536;2022-11-30T00:46:40;5.42;94.41
51878;SHT31;37911;51.526;11.536;2022-11-30T00:49:44;5.42;94.35
51878;SHT31;37911;51.526;11.536;2022-11-30T00:52:47;5.40;94.40
51878;SHT31;37911;51.526;11.536;2022-11-30T00:55:53;5.44;94.40
51878;SHT31;37911;51.526;11.536;2022-11-30T00:58:57;5.40;94.38
51878;SHT31;37911;51.526;11.536;2022-11-30T01:02:00;5.39;94.42
51878;SHT31;37911;51.526;11.536;2022-11-30T01:05:04;5.40;94.44
51878;SHT31;37911;51.526;11.536;2022-11-30T01:08:09;5.40;94.38
51878;SHT31;37911;51.526;11.536;2022-11-30T01:11:19;5.40;94.37
51878;SHT31;37911;51.526;11.536;2022-11-30T01:14:23;5.44;94.36
51878;SHT31;37911;51.526;11.536;2022-11-30T01:17:26;5.43;94.36
51878;SHT31;37911;51.526;11.536;2022-11-30T01:20:30;5.40;94.39
51878;SHT31;37911;51.526;11.536;2022-11-30T01:23:33;5.40;94.41
51878;SHT31;37911;51.526;11.536;2022-11-30T01:26:39;5.37;94.43
51878;SHT31;37911;51.526;11.536;2022-11-30T01:29:43;5.42;94.38
51878;SHT31;37911;51.526;11.536;2022-11-30T01:32:46;5.39;94.40
51878;SHT31;37911;51.526;11.536;2022-11-30T01:35:57;5.39;94.43
51878;SHT31;37911;51.526;11.536;2022-11-30T01:39:01;5.36;94.43
51878;SHT31;37911;51.526;11.536;2022-11-30T01:42:12;5.39;94.43
51878;SHT31;37911;51.526;11.536;2022-11-30T01:45:16;5.36;94.42
51878;SHT31;37911;51.526;11.536;2022-11-30T01:48:20;5.37;94.44
51878;SHT31;37911;51.526;11.536;2022-11-30T01:51:24;5.36;94.45
51878;SHT31;37911;51.526;11.536;2022-11-30T01:54:31;5.39;94.45
51878;SHT31;37911;51.526;11.536;2022-11-30T01:57:41;5.42;94.45
51878;SHT31;37911;51.526;11.536;2022-11-30T02:00:46;5.37;94.45
51878;SHT31;37911;51.526;11.536;2022-11-30T02:03:54;5.42;94.40
51878;SHT31;37911;51.526;11.536;2022-11-30T02:07:00;5.40;94.46
51878;SHT31;37911;51.526;11.536;2022-11-30T02:10:05;5.37;94.49
51878;SHT31;37911;51.526;11.536;2022-11-30T02:13:27;5.39;94.51
51878;SHT31;37911;51.526;11.536;2022-11-30T02:16:41;5.42;94.51
51878;SHT31;37911;51.526;11.536;2022-11-30T02:20:04;5.39;94.54
51878;SHT31;37911;51.526;11.536;2022-11-30T02:23:28;5.37;94.56
51878;SHT31;37911;51.526;11.536;2022-11-30T02:30:12;5.39;94.57
51878;SHT31;37911;51.526;11.536;2022-11-30T02:33:19;5.39;94.63
51878;SHT31;37911;51.526;11.536;2022-11-30T02:36:25;5.39;94.66
51878;SHT31;37911;51.526;11.536;2022-11-30T02:39:29;5.42;94.69
51878;SHT31;37911;51.526;11.536;2022-11-30T02:42:32;5.42;94.73
51878;SHT31;37911;51.526;11.536;2022-11-30T02:45:43;5.39;94.77
51878;SHT31;37911;51.526;11.536;2022-11-30T02:48:57;5.42;94.79
51878;SHT31;37911;51.526;11.536;2022-11-30T02:52:04;5.43;94.80
51878;SHT31;37911;51.526;11.536;2022-11-30T02:55:10;5.42;94.80
51878;SHT31;37911;51.526;11.536;2022-11-30T02:58:16;5.43;94.80
51878;SHT31;37911;51.526;11.536;2022-11-30T03:01:24;5.42;94.85
51878;SHT31;37911;51.526;11.536;2022-11-30T03:04:27;5.42;94.86
51878;SHT31;37911;51.526;11.536;2022-11-30T03:07:30;5.43;94.87
51878;SHT31;37911;51.526;11.536;2022-11-30T03:10:34;5.42;94.92
51878;SHT31;37911;51.526;11.536;2022-11-30T03:13:37;5.43;94.88
51878;SHT31;37911;51.526;11.536;2022-11-30T03:16:43;5.42;94.92
51878;SHT31;37911;51.526;11.536;2022-11-30T03:19:47;5.39;94.94
51878;SHT31;37911;51.526;11.536;2022-11-30T03:22:50;5.42;94.97
51878;SHT31;37911;51.526;11.536;2022-11-30T03:25:56;5.42;94.98
51878;SHT31;37911;51.526;11.536;2022-11-30T03:28:59;5.37;95.02
51878;SHT31;37911;51.526;11.536;2022-11-30T03:32:06;5.40;95.05
51878;SHT31;37911;51.526;11.536;2022-11-30T03:35:09;5.39;95.11
51878;SHT31;37911;51.526;11.536;2022-11-30T03:38:13;5.42;95.09
51878;SHT31;37911;51.526;11.536;2022-11-30T03:41:16;5.42;95.12
51878;SHT31;37911;51.526;11.536;2022-11-30T03:44:20;5.43;95.14
51878;SHT31;37911;51.526;11.536;2022-11-30T03:47:26;5.44;95.16
51878;SHT31;37911;51.526;11.536;2022-11-30T03:50:29;5.37;95.16
51878;SHT31;37911;51.526;11.536;2022-11-30T03:53:33;5.42;95.20
51878;SHT31;37911;51.526;11.536;2022-11-30T03:56:36;5.42;95.23
51878;SHT31;37911;51.526;11.536;2022-11-30T03:59:40;5.40;95.29
51878;SHT31;37911;51.526;11.536;2022-11-30T04:02:46;5.44;95.30
51878;SHT31;37911;51.526;11.536;2022-11-30T04:05:49;5.43;95.29
51878;SHT31;37911;51.526;11.536;2022-11-30T04:08:53;5.42;95.33
51878;SHT31;37911;51.526;11.536;2022-11-30T04:11:56;5.43;95.33
51878;SHT31;37911;51.526;11.536;2022-11-30T04:14:59;5.43;95.38
51878;SHT31;37911;51.526;11.536;2022-11-30T04:18:05;5.40;95.37
51878;SHT31;37911;51.526;11.536;2022-11-30T04:21:09;5.43;95.38
51878;SHT31;37911;51.526;11.536;2022-11-30T04:24:13;5.43;95.43
51878;SHT31;37911;51.526;11.536;2022-11-30T04:27:16;5.43;95.43
51878;SHT31;37911;51.526;11.536;2022-11-30T04:30:19;5.46;95.40
51878;SHT31;37911;51.526;11.536;2022-11-30T04:33:26;5.44;95.46
51878;SHT31;37911;51.526;11.536;2022-11-30T04:36:29;5.42;95.44
51878;SHT31;37911;51.526;11.536;2022-11-30T04:39:33;5.42;95.51
51878;SHT31;37911;51.526;11.536;2022-11-30T04:42:36;5.42;95.54
51878;SHT31;37911;51.526;11.536;2022-11-30T04:45:42;5.42;95.55
51878;SHT31;37911;51.526;11.536;2022-11-30T04:48:48;5.43;95.55
51878;SHT31;37911;51.526;11.536;2022-11-30T04:51:52;5.44;95.56
51878;SHT31;37911;51.526;11.536;2022-11-30T04:54:55;5.42;95.59
51878;SHT31;37911;51.526;11.536;2022-11-30T04:57:59;5.42;95.59
51878;SHT31;37911;51.526;11.536;2022-11-30T05:01:02;5.42;95.65
51878;SHT31;37911;51.526;11.536;2022-11-30T05:04:08;5.36;95.60
51878;SHT31;37911;51.526;11.536;2022-11-30T05:07:11;5.36;95.59
51878;SHT31;37911;51.526;11.536;2022-11-30T05:10:16;5.32;95.57
51878;SHT31;37911;51.526;11.536;2022-11-30T05:13:22;5.33;95.46
51878;SHT31;37911;51.526;11.536;2022-11-30T05:16:25;5.27;95.51
51878;SHT31;37911;51.526;11.536;2022-11-30T05:19:31;5.23;95.54
51878;SHT31;37911;51.526;11.536;2022-11-30T05:22:35;5.25;95.51
51878;SHT31;37911;51.526;11.536;2022-11-30T05:25:38;5.20;95.61
51878;SHT31;37911;51.526;11.536;2022-11-30T05:28:42;5.20;95.60
51878;SHT31;37911;51.526;11.536;2022-11-30T05:31:45;5.23;95.53
51878;SHT31;37911;51.526;11.536;2022-11-30T05:34:51;5.20;95.59
51878;SHT31;37911;51.526;11.536;2022-11-30T05:37:55;5.22;95.62
51878;SHT31;37911;51.526;11.536;2022-11-30T05:40:58;5.18;95.61
51878;SHT31;37911;51.526;11.536;2022-11-30T05:44:03;5.13;95.63
51878;SHT31;37911;51.526;11.536;2022-11-30T05:47:06;5.16;95.66
51878;SHT31;37911;51.526;11.536;2022-11-30T05:50:12;5.13;95.61
51878;SHT31;37911;51.526;11.536;2022-11-30T05:53:16;5.16;95.70
51878;SHT31;37911;51.526;11.536;2022-11-30T05:56:20;5.16;95.64
51878;SHT31;37911;51.526;11.536;2022-11-30T05:59:24;5.16;95.67
51878;SHT31;37911;51.526;11.536;2022-11-30T06:02:27;5.16;95.70
51878;SHT31;37911;51.526;11.536;2022-11-30T06:05:33;5.23;95.74
51878;SHT31;37911;51.526;11.536;2022-11-30T06:08:37;5.26;95.79
51878;SHT31;37911;51.526;11.536;2022-11-30T06:11:41;5.33;95.80
51878;SHT31;37911;51.526;11.536;2022-11-30T06:14:44;5.37;95.85
51878;SHT31;37911;51.526;11.536;2022-11-30T06:17:50;5.37;95.79
51878;SHT31;37911;51.526;11.536;2022-11-30T06:20:58;5.37;95.80
51878;SHT31;37911;51.526;11.536;2022-11-30T06:24:02;5.42;95.80
51878;SHT31;37911;51.526;11.536;2022-11-30T06:27:06;5.42;95.88
51878;SHT31;37911;51.526;11.536;2022-11-30T06:30:11;5.42;95.81
51878;SHT31;37911;51.526;11.536;2022-11-30T06:33:14;5.43;95.86
51878;SHT31;37911;51.526;11.536;2022-11-30T06:36:24;5.43;95.81
51878;SHT31;37911;51.526;11.536;2022-11-30T06:39:27;5.47;95.80
51878;SHT31;37911;51.526;11.536;2022-11-30T06:42:31;5.46;95.82
51878;SHT31;37911;51.526;11.536;2022-11-30T06:45:35;5.46;95.87
51878;SHT31;37911;51.526;11.536;2022-11-30T06:48:38;5.47;95.83
51878;SHT31;37911;51.526;11.536;2022-11-30T06:51:44;5.48;95.87
51878;SHT31;37911;51.526;11.536;2022-11-30T06:54:47;5.46;95.90
51878;SHT31;37911;51.526;11.536;2022-11-30T06:57:51;5.48;95.91
51878;SHT31;37911;51.526;11.536;2022-11-30T07:00:54;5.48;95.94
51878;SHT31;37911;51.526;11.536;2022-11-30T07:03:58;5.46;95.95
51878;SHT31;37911;51.526;11.536;2022-11-30T07:07:04;5.42;95.97
51878;SHT31;37911;51.526;11.536;2022-11-30T07:10:08;5.46;95.96
51878;SHT31;37911;51.526;11.536;2022-11-30T07:13:16;5.46;95.96
51878;SHT31;37911;51.526;11.536;2022-11-30T07:16:20;5.47;96.02
51878;SHT31;37911;51.526;11.536;2022-11-30T07:19:23;5.50;95.90
51878;SHT31;37911;51.526;11.536;2022-11-30T07:22:29;5.48;95.90
51878;SHT31;37911;51.526;11.536;2022-11-30T07:25:33;5.50;95.92
51878;SHT31;37911;51.526;11.536;2022-11-30T07:28:49;5.46;95.96
51878;SHT31;37911;51.526;11.536;2022-11-30T07:31:54;5.51;95.94
51878;SHT31;37911;51.526;11.536;2022-11-30T07:34:58;5.50;95.97
51878;SHT31;37911;51.526;11.536;2022-11-30T07:38:04;5.51;95.95
51878;SHT31;37911;51.526;11.536;2022-11-30T07:41:08;5.50;95.97
51878;SHT31;37911;51.526;11.536;2022-11-30T07:44:11;5.47;95.96
51878;SHT31;37911;51.526;11.536;2022-11-30T07:47:16;5.57;95.89
51878;SHT31;37911;51.526;11.536;2022-11-30T07:50:19;5.51;95.93
51878;SHT31;37911;51.526;11.536;2022-11-30T07:53:27;5.56;95.87
51878;SHT31;37911;51.526;11.536;2022-11-30T07:56:31;5.56;95.87
51878;SHT31;37911;51.526;11.536;2022-11-30T07:59:34;5.53;95.88
51878;SHT31;37911;51.526;11.536;2022-11-30T08:02:38;5.60;95.78
51878;SHT31;37911;51.526;11.536;2022-11-30T08:05:43;5.58;95.75
51878;SHT31;37911;51.526;11.536;2022-11-30T08:08:51;5.61;95.69
51878;SHT31;37911;51.526;11.536;2022-11-30T08:11:55;5.60;95.63
51878;SHT31;37911;51.526;11.536;2022-11-30T08:14:59;5.54;95.54
51878;SHT31;37911;51.526;11.536;2022-11-30T08:18:02;5.57;95.52
51878;SHT31;37911;51.526;11.536;2022-11-30T08:21:08;5.54;95.41
51878;SHT31;37911;51.526;11.536;2022-11-30T08:24:14;5.56;95.43
51878;SHT31;37911;51.526;11.536;2022-11-30T08:27:18;5.56;95.41
51878;SHT31;37911;51.526;11.536;2022-11-30T08:30:23;5.51;95.30
51878;SHT31;37911;51.526;11.536;2022-11-30T08:33:26;5.54;95.19
51878;SHT31;37911;51.526;11.536;2022-11-30T08:36:32;5.54;95.18
51878;SHT31;37911;51.526;11.536;2022-11-30T08:39:38;5.54;95.08
51878;SHT31;37911;51.526;11.536;2022-11-30T08:42:41;5.57;95.09
51878;SHT31;37911;51.526;11.536;2022-11-30T08:45:44;5.58;95.09
51878;SHT31;37911;51.526;11.536;2022-11-30T08:48:48;5.63;94.98
51878;SHT31;37911;51.526;11.536;2022-11-30T08:51:53;5.66;94.82
51878;SHT31;37911;51.526;11.536;2022-11-30T08:55:00;5.67;94.78
51878;SHT31;37911;51.526;11.536;2022-11-30T08:58:03;5.64;94.57
51878;SHT31;37911;51.526;11.536;2022-11-30T09:01:08;5.73;94.42
51878;SHT31;37911;51.526;11.536;2022-11-30T09:04:14;5.71;94.20
51878;SHT31;37911;51.526;11.536;2022-11-30T09:07:17;5.71;94.19
51878;SHT31;37911;51.526;11.536;2022-11-30T09:10:31;5.75;94.11
51878;SHT31;37911;51.526;11.536;2022-11-30T09:13:35;5.78;93.94
51878;SHT31;37911;51.526;11.536;2022-11-30T09:16:39;5.80;93.40
51878;SHT31;37911;51.526;11.536;2022-11-30T09:19:43;5.88;93.53
51878;SHT31;37911;51.526;11.536;2022-11-30T09:22:46;5.98;93.33
51878;SHT31;37911;51.526;11.536;2022-11-30T09:25:56;5.97;92.72
51878;SHT31;37911;51.526;11.536;2022-11-30T09:29:04;5.97;92.61
51878;SHT31;37911;51.526;11.536;2022-11-30T09:32:07;6.05;92.45
51878;SHT31;37911;51.526;11.536;2022-11-30T09:35:11;6.10;92.13
51878;SHT31;37911;51.526;11.536;2022-11-30T09:38:14;6.15;91.89
51878;SHT31;37911;51.526;11.536;2022-11-30T09:45:02;6.18;91.55
51878;SHT31;37911;51.526;11.536;2022-11-30T09:48:23;6.15;91.14
51878;SHT31;37911;51.526;11.536;2022-11-30T09:51:37;6.05;90.79
51878;SHT31;37911;51.526;11.536;2022-11-30T09:54:44;6.11;90.91
51878;SHT31;37911;51.526;11.536;2022-11-30T09:57:50;6.08;90.79
51878;SHT31;37911;51.526;11.536;2022-11-30T10:00:58;6.14;90.56
51878;SHT31;37911;51.526;11.536;2022-11-30T10:04:07;6.14;90.60
51878;SHT31;37911;51.526;11.536;2022-11-30T10:07:27;6.17;90.36
51878;SHT31;37911;51.526;11.536;2022-11-30T10:10:38;6.18;89.95
51878;SHT31;37911;51.526;11.536;2022-11-30T10:13:52;6.21;89.88
51878;SHT31;37911;51.526;11.536;2022-11-30T10:17:03;6.31;89.82
51878;SHT31;37911;51.526;11.536;2022-11-30T10:20:20;6.36;89.56
51878;SHT31;37911;51.526;11.536;2022-11-30T10:23:43;6.29;88.50
51878;SHT31;37911;51.526;11.536;2022-11-30T10:26:54;6.28;88.77
51878;SHT31;37911;51.526;11.536;2022-11-30T10:29:59;6.29;88.76
51878;SHT31;37911;51.526;11.536;2022-11-30T10:33:15;6.35;88.56
51878;SHT31;37911;51.526;11.536;2022-11-30T10:36:25;6.36;88.35
51878;SHT31;37911;51.526;11.536;2022-11-30T10:39:32;6.33;88.52
51878;SHT31;37911;51.526;11.536;2022-11-30T10:42:42;6.39;88.47
51878;SHT31;37911;51.526;11.536;2022-11-30T10:45:48;6.31;88.46
51878;SHT31;37911;51.526;11.536;2022-11-30T10:48:58;6.35;88.25
51878;SHT31;37911;51.526;11.536;2022-11-30T10:52:05;6.33;88.42
51878;SHT31;37911;51.526;11.536;2022-11-30T10:55:12;6.28;88.09
51878;SHT31;37911;51.526;11.536;2022-11-30T10:58:20;6.25;88.55
51878;SHT31;37911;51.526;11.536;2022-11-30T11:01:33;6.25;88.57
51878;SHT31;37911;51.526;11.536;2022-11-30T11:04:41;6.26;88.10
51878;SHT31;37911;51.526;11.536;2022-11-30T11:07:54;6.11;88.59
51878;SHT31;37911;51.526;11.536;2022-11-30T11:10:58;6.14;88.60
51878;SHT31;37911;51.526;11.536;2022-11-30T11:14:13;6.08;89.02
51878;SHT31;37911;51.526;11.536;2022-11-30T11:17:22;6.11;89.03
51878;SHT31;37911;51.526;11.536;2022-11-30T11:20:33;6.10;89.40
51878;SHT31;37911;51.526;11.536;2022-11-30T11:23:39;6.14;89.16
51878;SHT31;37911;51.526;11.536;2022-11-30T11:26:48;6.20;89.05
51878;SHT31;37911;51.526;11.536;2022-11-30T11:30:00;6.21;89.24
51878;SHT31;37911;51.526;11.536;2022-11-30T11:33:18;6.24;89.25
51878;SHT31;37911;51.526;11.536;2022-11-30T11:36:30;6.22;89.14
51878;SHT31;37911;51.526;11.536;2022-11-30T11:39:36;6.26;88.92
51878;SHT31;37911;51.526;11.536;2022-11-30T11:42:42;6.24;88.70
51878;SHT31;37911;51.526;11.536;2022-11-30T11:45:50;6.25;88.64
51878;SHT31;37911;51.526;11.536;2022-11-30T11:48:57;6.29;88.60
51878;SHT31;37911;51.526;11.536;2022-11-30T11:52:05;6.36;88.64
51878;SHT31;37911;51.526;11.536;2022-11-30T11:55:13;6.36;88.51
51878;SHT31;37911;51.526;11.536;2022-11-30T11:58:23;6.39;88.12
51878;SHT31;37911;51.526;11.536;2022-11-30T12:01:43;6.45;88.22
51878;SHT31;37911;51.526;11.536;2022-11-30T12:04:53;6.48;88.31
51878;SHT31;37911;51.526;11.536;2022-11-30T12:08:06;6.49;88.27
51878;SHT31;37911;51.526;11.536;2022-11-30T12:11:15;6.48;87.80
51878;SHT31;37911;51.526;11.536;2022-11-30T12:14:20;6.46;87.67
51878;SHT31;37911;51.526;11.536;2022-11-30T12:17:37;6.50;87.69
51878;SHT31;37911;51.526;11.536;2022-11-30T12:20:53;6.43;87.84
51878;SHT31;37911;51.526;11.536;2022-11-30T12:27:32;6.48;87.69
51878;SHT31;37911;51.526;11.536;2022-11-30T12:30:46;6.45;87.96
51878;SHT31;37911;51.526;11.536;2022-11-30T12:34:03;6.38;87.88
51878;SHT31;37911;51.526;11.536;2022-11-30T12:37:18;6.28;87.94
51878;SHT31;37911;51.526;11.536;2022-11-30T12:40:34;6.31;87.98
51878;SHT31;37911;51.526;11.536;2022-11-30T12:43:48;6.28;88.08
51878;SHT31;37911;51.526;11.536;2022-11-30T12:47:00;6.31;88.19
51878;SHT31;37911;51.526;11.536;2022-11-30T12:50:20;6.28;88.10
51878;SHT31;37911;51.526;11.536;2022-11-30T12:53:28;6.33;87.78
51878;SHT31;37911;51.526;11.536;2022-11-30T12:56:40;6.24;87.93
51878;SHT31;37911;51.526;11.536;2022-11-30T12:59:50;6.28;87.74
51878;SHT31;37911;51.526;11.536;2022-11-30T13:03:12;6.24;88.00
51878;SHT31;37911;51.526;11.536;2022-11-30T13:06:23;6.17;87.76
51878;SHT31;37911;51.526;11.536;2022-11-30T13:09:33;6.24;88.05
51878;SHT31;37911;51.526;11.536;2022-11-30T13:12:45;6.22;88.25
51878;SHT31;37911;51.526;11.536;2022-11-30T13:15:50;6.20;87.88
51878;SHT31;37911;51.526;11.536;2022-11-30T13:18:57;6.18;87.99
51878;SHT31;37911;51.526;11.536;2022-11-30T13:22:08;6.18;88.01
51878;SHT31;37911;51.526;11.536;2022-11-30T13:25:21;6.12;88.29
51878;SHT31;37911;51.526;11.536;2022-11-30T13:28:40;6.11;88.33
51878;SHT31;37911;51.526;11.536;2022-11-30T13:31:52;6.10;88.27
51878;SHT31;37911;51.526;11.536;2022-11-30T13:38:43;6.04;88.48
51878;SHT31;37911;51.526;11.536;2022-11-30T13:41:48;6.02;88.39
51878;SHT31;37911;51.526;11.536;2022-11-30T13:44:55;6.04;88.47
51878;SHT31;37911;51.526;11.536;2022-11-30T13:48:16;6.01;88.43
51878;SHT31;37911;51.526;11.536;2022-11-30T13:51:33;6.01;88.36
51878;SHT31;37911;51.526;11.536;2022-11-30T13:54:42;5.98;88.33
51878;SHT31;37911;51.526;11.536;2022-11-30T13:58:05;5.90;88.20
51878;SHT31;37911;51.526;11.536;2022-11-30T14:01:27;5.84;88.35
51878;SHT31;37911;51.526;11.536;2022-11-30T14:04:32;5.83;88.30
51878;SHT31;37911;51.526;11.536;2022-11-30T14:07:36;5.77;88.35
51878;SHT31;37911;51.526;11.536;2022-11-30T14:10:42;5.70;88.27
51878;SHT31;37911;51.526;11.536;2022-11-30T14:13:45;5.70;88.09
51878;SHT31;37911;51.526;11.536;2022-11-30T14:16:51;5.66;88.59
51878;SHT31;37911;51.526;11.536;2022-11-30T14:19:58;5.68;88.83
51878;SHT31;37911;51.526;11.536;2022-11-30T14:23:03;5.66;89.02
51878;SHT31;37911;51.526;11.536;2022-11-30T14:26:10;5.68;89.12
51878;SHT31;37911;51.526;11.536;2022-11-30T14:29:18;5.63;88.93
51878;SHT31;37911;51.526;11.536;2022-11-30T14:32:39;5.54;88.64
51878;SHT31;37911;51.526;11.536;2022-11-30T14:35:43;5.51;88.54
51878;SHT31;37911;51.526;11.536;2022-11-30T14:38:49;5.44;88.54
51878;SHT31;37911;51.526;11.536;2022-11-30T14:41:52;5.43;88.73
51878;SHT31;37911;51.526;11.536;2022-11-30T14:44:56;5.40;88.65
51878;SHT31;37911;51.526;11.536;2022-11-30T14:48:10;5.42;88.57
51878;SHT31;37911;51.526;11.536;2022-11-30T14:51:15;5.33;88.74
51878;SHT31;37911;51.526;11.536;2022-11-30T14:54:34;5.43;88.80
51878;SHT31;37911;51.526;11.536;2022-11-30T14:57:42;5.48;88.82
51878;SHT31;37911;51.526;11.536;2022-11-30T15:00:49;5.43;88.79
51878;SHT31;37911;51.526;11.536;2022-11-30T15:04:04;5.46;88.68
51878;SHT31;37911;51.526;11.536;2022-11-30T15:07:12;5.44;88.64
51878;SHT31;37911;51.526;11.536;2022-11-30T15:10:23;5.44;88.54
51878;SHT31;37911;51.526;11.536;2022-11-30T15:13:28;5.43;88.65
51878;SHT31;37911;51.526;11.536;2022-11-30T15:16:32;5.47;88.59
51878;SHT31;37911;51.526;11.536;2022-11-30T15:19:45;5.47;88.62
51878;SHT31;37911;51.526;11.536;2022-11-30T15:22:49;5.44;88.56
51878;SHT31;37911;51.526;11.536;2022-11-30T15:25:56;5.44;88.65
51878;SHT31;37911;51.526;11.536;2022-11-30T15:29:03;5.44;88.66
51878;SHT31;37911;51.526;11.536;2022-11-30T15:32:15;5.37;88.53
51878;SHT31;37911;51.526;11.536;2022-11-30T15:35:23;5.29;88.59
51878;SHT31;37911;51.526;11.536;2022-11-30T15:38:27;5.26;88.66
51878;SHT31;37911;51.526;11.536;2022-11-30T15:41:32;5.23;88.88
51878;SHT31;37911;51.526;11.536;2022-11-30T15:44:40;5.16;88.76
51878;SHT31;37911;51.526;11.536;2022-11-30T15:47:46;5.20;88.76
51878;SHT31;37911;51.526;11.536;2022-11-30T15:50:52;5.13;89.06
51878;SHT31;37911;51.526;11.536;2022-11-30T15:53:55;5.13;89.18
51878;SHT31;37911;51.526;11.536;2022-11-30T15:56:59;5.15;89.11
51878;SHT31;37911;51.526;11.536;2022-11-30T16:00:07;5.13;88.99
51878;SHT31;37911;51.526;11.536;2022-11-30T16:03:12;5.12;89.03
51878;SHT31;37911;51.526;11.536;2022-11-30T16:06:20;5.12;89.02
51878;SHT31;37911;51.526;11.536;2022-11-30T16:09:27;5.12;88.89
51878;SHT31;37911;51.526;11.536;2022-11-30T16:12:32;5.11;88.68
51878;SHT31;37911;51.526;11.536;2022-11-30T16:15:35;5.12;88.40
51878;SHT31;37911;51.526;11.536;2022-11-30T16:18:40;5.12;88.30
51878;SHT31;37911;51.526;11.536;2022-11-30T16:21:47;5.11;88.28
51878;SHT31;37911;51.526;11.536;2022-11-30T16:24:50;5.12;88.20
51878;SHT31;37911;51.526;11.536;2022-11-30T16:27:54;5.08;88.11
51878;SHT31;37911;51.526;11.536;2022-11-30T16:30:59;5.11;88.20
51878;SHT31;37911;51.526;11.536;2022-11-30T16:34:04;5.13;88.19
51878;SHT31;37911;51.526;11.536;2022-11-30T16:37:11;5.06;88.32
51878;SHT31;37911;51.526;11.536;2022-11-30T16:40:15;5.06;88.46
51878;SHT31;37911;51.526;11.536;2022-11-30T16:43:19;5.00;88.19
51878;SHT31;37911;51.526;11.536;2022-11-30T16:46:23;4.99;88.17
51878;SHT31;37911;51.526;11.536;2022-11-30T16:49:27;5.02;88.19
51878;SHT31;37911;51.526;11.536;2022-11-30T16:52:33;5.02;88.21
51878;SHT31;37911;51.526;11.536;2022-11-30T16:55:37;5.02;87.98
51878;SHT31;37911;51.526;11.536;2022-11-30T16:58:41;4.97;88.08
51878;SHT31;37911;51.526;11.536;2022-11-30T17:01:46;4.97;88.14
51878;SHT31;37911;51.526;11.536;2022-11-30T17:04:52;4.96;88.10
51878;SHT31;37911;51.526;11.536;2022-11-30T17:07:58;4.99;88.04
51878;SHT31;37911;51.526;11.536;2022-11-30T17:11:01;4.95;88.14
51878;SHT31;37911;51.526;11.536;2022-11-30T17:14:06;4.93;88.07
51878;SHT31;37911;51.526;11.536;2022-11-30T17:17:10;4.95;88.06
51878;SHT31;37911;51.526;11.536;2022-11-30T17:20:15;4.96;87.84
51878;SHT31;37911;51.526;11.536;2022-11-30T17:23:21;4.95;87.71
51878;SHT31;37911;51.526;11.536;2022-11-30T17:26:25;4.92;87.69
51878;SHT31;37911;51.526;11.536;2022-11-30T17:29:28;4.92;87.74
51878;SHT31;37911;51.526;11.536;2022-11-30T17:32:32;4.91;87.40
51878;SHT31;37911;51.526;11.536;2022-11-30T17:35:36;4.91;87.54
51878;SHT31;37911;51.526;11.536;2022-11-30T17:38:43;4.93;87.65
51878;SHT31;37911;51.526;11.536;2022-11-30T17:41:46;4.88;87.47
51878;SHT31;37911;51.526;11.536;2022-11-30T17:44:50;4.85;87.50
51878;SHT31;37911;51.526;11.536;2022-11-30T17:47:53;4.83;87.55
51878;SHT31;37911;51.526;11.536;2022-11-30T17:50:57;4.85;87.52
51878;SHT31;37911;51.526;11.536;2022-11-30T17:54:03;4.89;87.37
51878;SHT31;37911;51.526;11.536;2022-11-30T17:57:06;4.88;87.17
51878;SHT31;37911;51.526;11.536;2022-11-30T18:00:11;4.86;86.93
51878;SHT31;37911;51.526;11.536;2022-11-30T18:03:14;4.88;86.84
51878;SHT31;37911;51.526;11.536;2022-11-30T18:06:18;4.86;86.79
51878;SHT31;37911;51.526;11.536;2022-11-30T18:09:24;4.83;86.70
51878;SHT31;37911;51.526;11.536;2022-11-30T18:12:28;4.86;86.58
51878;SHT31;37911;51.526;11.536;2022-11-30T18:15:31;4.83;86.61
51878;SHT31;37911;51.526;11.536;2022-11-30T18:18:35;4.83;86.39
51878;SHT31;37911;51.526;11.536;2022-11-30T18:21:39;4.83;86.17
51878;SHT31;37911;51.526;11.536;2022-11-30T18:24:47;4.81;86.31
51878;SHT31;37911;51.526;11.536;2022-11-30T18:27:51;4.82;85.94
51878;SHT31;37911;51.526;11.536;2022-11-30T18:30:54;4.79;85.05
51878;SHT31;37911;51.526;11.536;2022-11-30T18:34:00;4.65;85.13
51878;SHT31;37911;51.526;11.536;2022-11-30T18:37:04;4.55;84.82
51878;SHT31;37911;51.526;11.536;2022-11-30T18:40:11;4.55;84.84
51878;SHT31;37911;51.526;11.536;2022-11-30T18:43:14;4.48;84.78
51878;SHT31;37911;51.526;11.536;2022-11-30T18:46:18;4.51;85.13
51878;SHT31;37911;51.526;11.536;2022-11-30T18:49:21;4.50;85.11
51878;SHT31;37911;51.526;11.536;2022-11-30T18:52:26;4.48;85.39
51878;SHT31;37911;51.526;11.536;2022-11-30T18:55:32;4.47;85.46
51878;SHT31;37911;51.526;11.536;2022-11-30T18:58:37;4.42;85.26
51878;SHT31;37911;51.526;11.536;2022-11-30T19:01:40;4.37;85.63
51878;SHT31;37911;51.526;11.536;2022-11-30T19:04:45;4.28;85.62
51878;SHT31;37911;51.526;11.536;2022-11-30T19:07:49;4.18;86.15
51878;SHT31;37911;51.526;11.536;2022-11-30T19:11:00;4.11;86.48
51878;SHT31;37911;51.526;11.536;2022-11-30T19:14:04;4.03;86.80
51878;SHT31;37911;51.526;11.536;2022-11-30T19:17:07;3.94;86.76
51878;SHT31;37911;51.526;11.536;2022-11-30T19:20:12;3.93;87.06
51878;SHT31;37911;51.526;11.536;2022-11-30T19:23:16;3.93;87.07
51878;SHT31;37911;51.526;11.536;2022-11-30T19:26:22;3.85;87.04
51878;SHT31;37911;51.526;11.536;2022-11-30T19:29:27;3.85;87.28
51878;SHT31;37911;51.526;11.536;2022-11-30T19:32:31;3.79;87.45
51878;SHT31;37911;51.526;11.536;2022-11-30T19:35:34;3.76;87.49
51878;SHT31;37911;51.526;11.536;2022-11-30T19:38:38;3.66;87.51
51878;SHT31;37911;51.526;11.536;2022-11-30T19:41:44;3.67;87.74
51878;SHT31;37911;51.526;11.536;2022-11-30T19:44:47;3.62;87.77
51878;SHT31;37911;51.526;11.536;2022-11-30T19:47:51;3.55;87.94
51878;SHT31;37911;51.526;11.536;2022-11-30T19:50:54;3.46;87.99